Decoded Metar for LQSA (SARAJEVO in BOSNIA-HERCEGOVINA) (IATA:SJJ) | Meteo·Mobile Aviation Weather
aviador You're here:

LQSA Decoded Metar

SARAJEVO in BOSNIA-HERCEGOVINA
Report Time2019-07-19 18:00:00
UTC Time2019-07-19 18:27:26
Flight Rules vfr VFR
Wind300° at 04 kt
W.Decomp.*RWY 30: 4.0 kt HW 0.1 kt LCW
Visibility9999 m
Phenomena:N/A
Clouds:N/A
Expected CloudBase > 4,400 ft AGL from Temp-Dew spread
CeilingNone
Temp24°C (ISA +12)
Dew Point13°C (50% RH)
AAT23.5°C
QNH1018 hPa
Density Alt3,140 ft
Elevation1,677 ft
Report Wrong Elevation
Raw Report
LQSA 191800Z 30004KT CAVOK 24/13 Q1018 NOSIG=

Extra information for LQSA:More info

Metar Taf Metar & Taf Last 4 Metars F.Rules Stats Wind Profile Meteogram Temp Stats Airport Information Weather charts Add Link Nearby VenuesMetar ALERT Operation Metar Decoded Social comments